Terminal Aerodrome Forecast
Issued by NWS

Home | Current Version | Previous Version | Graphics & Text | Print | Product List | Glossary On
Versions: 1 2 3 4 5 6 7 8 9 10 11 12 13 14 15
000
FTUS43 KICT 181100 RRA
TAFHUT
TAF
KHUT 181142Z 1812/1912 VRB03KT 4SM BR SKC
      TEMPO 1812/1814 1SM BR
     FM181400 17010KT P6SM SCT025
     FM181700 17016G23KT P6SM SCT035
     FM190100 16014KT P6SM SCT050=

USA.gov is the U.S. government's official web portal to all federal, state and local government web resources and services.